Time;durP1;ratioP1;P1;durP2;ratioP2;P2;SDS_P1;SDS_P2;PMS_P1;PMS_P2;Temp;Humidity;BMP_temperature;BMP_pressure;BME280_temperature;BME280_humidity;BME280_pressure;Samples;Min_cycle;Max_cycle;Signal;HPM_P1;HPM_P2
2022/12/20 00:00:50;;;;;;;10.25;9.35;;;;;;;0.47;66.02;96720.34;5114623;28;20634;-72
2022/12/20 00:03:17;;;;;;;10.85;9.77;;;;;;;0.50;66.23;96726.34;5115860;28;20198;-72
2022/12/20 00:05:44;;;;;;;11.35;10.25;;;;;;;0.47;66.41;96719.50;5114720;28;20196;-73
2022/12/20 00:08:12;;;;;;;11.05;9.95;;;;;;;0.51;65.83;96727.97;5114565;28;20199;-72
2022/12/20 00:10:39;;;;;;;10.63;9.63;;;;;;;0.51;65.47;96730.69;5114827;28;20202;-71
2022/12/20 00:13:06;;;;;;;10.70;9.73;;;;;;;0.36;65.86;96734.81;5114723;28;20211;-71
2022/12/20 00:15:34;;;;;;;10.90;9.80;;;;;;;0.37;66.03;96732.94;5115956;28;20531;-71
2022/12/20 00:18:01;;;;;;;10.43;9.48;;;;;;;0.43;65.47;96734.66;5115717;28;20188;-71
2022/12/20 00:20:29;;;;;;;10.07;9.27;;;;;;;0.42;65.58;96727.59;5114506;28;20269;-71
2022/12/20 00:22:56;;;;;;;10.10;9.05;;;;;;;0.27;65.62;96730.06;5114360;28;20568;-71
2022/12/20 00:25:23;;;;;;;11.07;10.05;;;;;;;0.29;65.56;96734.19;5114826;28;20192;-71
2022/12/20 00:27:50;;;;;;;10.38;9.48;;;;;;;0.19;65.94;96739.44;5114680;28;20199;-72
2022/12/20 00:30:17;;;;;;;9.65;8.73;;;;;;;0.34;65.75;96736.16;5114485;28;20635;-71
2022/12/20 00:32:45;;;;;;;10.95;9.85;;;;;;;0.44;65.43;96737.13;5115701;28;20215;-71
2022/12/20 00:35:12;;;;;;;10.05;9.05;;;;;;;0.47;65.04;96733.09;5114864;28;20194;-71
2022/12/20 00:37:39;;;;;;;10.40;9.48;;;;;;;0.49;64.81;96736.38;5114327;28;20552;-71
2022/12/20 00:40:07;;;;;;;10.48;9.40;;;;;;;0.50;64.88;96723.63;5114624;28;20187;-71
2022/12/20 00:42:34;;;;;;;9.27;8.38;;;;;;;0.48;64.28;96730.13;5114355;28;20191;-71
2022/12/20 00:45:01;;;;;;;10.20;9.20;;;;;;;0.46;64.48;96726.84;5114442;28;20203;-71
2022/12/20 00:47:28;;;;;;;10.30;9.30;;;;;;;0.43;64.36;96729.22;5114119;28;20569;-71
2022/12/20 00:49:56;;;;;;;10.52;9.45;;;;;;;0.43;64.72;96726.50;5114559;28;20200;-71
2022/12/20 00:52:23;;;;;;;9.85;8.77;;;;;;;0.37;64.40;96719.38;5114395;28;20216;-71
2022/12/20 00:54:49;;;;;;;10.40;8.95;;;;;;;0.30;64.35;96726.88;5114528;28;20613;-71
2022/12/20 00:57:16;;;;;;;10.05;9.05;;;;;;;0.21;64.82;96729.16;5114567;28;20208;-71
2022/12/20 00:59:43;;;;;;;9.73;8.82;;;;;;;0.16;64.97;96735.31;5114015;28;20207;-71
2022/12/20 01:02:10;;;;;;;8.75;7.95;;;;;;;0.20;64.54;96722.09;5114507;28;20196;-71
2022/12/20 01:04:37;;;;;;;9.60;8.73;;;;;;;0.23;64.44;96727.03;5113981;28;20204;-71
2022/12/20 01:07:05;;;;;;;9.45;8.52;;;;;;;0.26;64.40;96728.44;5114555;28;20196;-71
2022/12/20 01:09:32;;;;;;;9.38;8.48;;;;;;;0.29;64.24;96728.75;5114283;28;20199;-71
2022/12/20 01:11:58;;;;;;;9.20;8.30;;;;;;;0.36;63.95;96729.38;5114372;28;20196;-71
2022/12/20 01:14:25;;;;;;;9.13;8.32;;;;;;;0.38;64.04;96727.25;5113899;28;20230;-71
2022/12/20 01:16:52;;;;;;;9.23;8.38;;;;;;;0.38;63.76;96715.59;5114076;28;20200;-71
2022/12/20 01:19:19;;;;;;;9.88;8.98;;;;;;;0.39;63.97;96723.47;5114049;28;20195;-71
2022/12/20 01:21:46;;;;;;;9.38;8.52;;;;;;;0.44;63.96;96707.28;5113896;28;20556;-71
2022/12/20 01:24:15;;;;;;;8.27;7.45;;;;;;;0.38;63.71;96716.41;5116210;28;20218;-71
2022/12/20 01:26:42;;;;;;;9.20;8.32;;;;;;;0.42;63.76;96708.59;5117512;28;20600;-71
2022/12/20 01:29:09;;;;;;;8.35;7.57;;;;;;;0.32;63.42;96698.38;5117669;28;20199;-72
2022/12/20 01:31:36;;;;;;;8.75;7.90;;;;;;;0.25;63.52;96703.16;5117385;28;20191;-72
2022/12/20 01:34:03;;;;;;;8.40;7.60;;;;;;;0.32;63.82;96694.84;5117818;28;20212;-72
2022/12/20 01:36:33;;;;;;;9.10;8.20;;;;;;;0.33;63.78;96691.91;5118551;28;20192;-72
2022/12/20 01:39:01;;;;;;;8.45;7.65;;;;;;;0.41;63.25;96696.91;5118568;28;20188;-72
2022/12/20 01:41:31;;;;;;;8.60;7.80;;;;;;;0.48;63.42;96692.13;5117759;28;20184;-72
2022/12/20 01:43:59;;;;;;;7.95;7.25;;;;;;;0.37;63.41;96692.22;5117638;28;20204;-72
2022/12/20 01:46:28;;;;;;;8.05;7.35;;;;;;;0.37;63.14;96689.50;5117387;28;20206;-72
2022/12/20 01:49:00;;;;;;;8.60;7.80;;;;;;;0.30;62.58;96683.44;5117433;28;20642;-72
2022/12/20 01:51:28;;;;;;;8.63;7.82;;;;;;;0.34;62.72;96687.28;5117526;28;20219;-72
2022/12/20 01:53:57;;;;;;;8.27;7.47;;;;;;;0.22;62.90;96688.22;5118260;28;20204;-72
2022/12/20 01:56:24;;;;;;;9.13;8.32;;;;;;;0.20;63.36;96690.34;5116861;28;20195;-72
2022/12/20 01:58:53;;;;;;;8.45;7.65;;;;;;;0.22;63.12;96687.41;5117558;28;20196;-72
2022/12/20 02:01:21;;;;;;;8.90;8.00;;;;;;;0.30;62.79;96680.72;5117475;28;20199;-72
2022/12/20 02:03:49;;;;;;;8.20;7.40;;;;;;;0.37;62.68;96684.91;5117130;28;20248;-72
2022/12/20 02:06:18;;;;;;;8.18;7.47;;;;;;;0.43;62.53;96672.22;5117009;28;20199;-72
2022/12/20 02:08:46;;;;;;;9.05;8.15;;;;;;;0.47;62.44;96676.91;5117723;28;20626;-72
2022/12/20 02:11:24;;;;;;;8.50;7.70;;;;;;;0.51;62.00;96676.38;5117560;28;20603;-72
2022/12/20 02:14:03;;;;;;;8.32;7.53;;;;;;;0.40;62.04;96670.00;5117023;28;20211;-71
2022/12/20 02:16:35;;;;;;;8.68;7.88;;;;;;;0.46;62.42;96679.88;5116847;28;20195;-71
2022/12/20 02:19:08;;;;;;;8.85;8.05;;;;;;;0.46;62.02;96682.56;5117298;28;20211;-71
2022/12/20 02:21:40;;;;;;;8.05;7.25;;;;;;;0.38;62.06;96667.53;5116466;28;20262;-71
2022/12/20 02:24:53;;;;;;;8.52;7.72;;;;;;;0.41;61.66;96674.38;5117600;28;20195;-71
2022/12/20 02:27:41;;;;;;;7.90;7.20;;;;;;;0.33;62.44;96670.19;5038598;28;20205;-72
2022/12/20 02:30:13;;;;;;;8.73;7.90;;;;;;;0.35;61.71;96673.47;5054932;28;20267;-71
2022/12/20 02:32:44;;;;;;;7.78;7.07;;;;;;;0.26;62.69;96676.88;5054942;28;20646;-71
2022/12/20 02:35:14;;;;;;;8.55;7.70;;;;;;;0.30;62.08;96678.81;5037412;28;20206;-71
2022/12/20 02:37:48;;;;;;;8.32;7.53;;;;;;;0.26;62.18;96682.28;5054961;28;20197;-72
2022/12/20 02:40:15;;;;;;;8.85;8.05;;;;;;;0.20;62.04;96675.94;5038049;28;20213;-72
2022/12/20 02:42:42;;;;;;;8.30;7.50;;;;;;;0.15;62.29;96663.13;5054667;28;20197;-72
2022/12/20 02:45:16;;;;;;;8.77;7.93;;;;;;;0.20;62.60;96675.94;5037990;28;20205;-72
2022/12/20 02:47:49;;;;;;;8.30;7.50;;;;;;;0.20;62.79;96673.25;5054827;28;20212;-72
2022/12/20 02:50:18;;;;;;;9.57;8.60;;;;;;;0.19;62.52;96666.19;5054539;28;20287;-71
2022/12/20 02:52:45;;;;;;;9.40;8.60;;;;;;;0.21;63.13;96664.84;5054820;28;20638;-71
2022/12/20 02:55:12;;;;;;;9.00;8.15;;;;;;;0.23;62.81;96662.72;5055045;28;20197;-71
2022/12/20 02:57:44;;;;;;;8.93;8.02;;;;;;;0.26;62.69;96664.13;5055346;28;20207;-71
2022/12/20 03:00:14;;;;;;;9.30;8.40;;;;;;;0.26;62.74;96663.28;5116142;28;20223;-71
2022/12/20 03:05:27;;;;;;;9.38;8.48;;;;;;;0.19;62.32;96653.41;5115535;28;20190;-71
2022/12/20 03:07:54;;;;;;;9.27;8.40;;;;;;;0.17;62.51;96652.03;5115595;28;20229;-71
2022/12/20 03:10:21;;;;;;;9.60;8.60;;;;;;;0.13;62.65;96650.88;5116292;28;20262;-71
2022/12/20 03:12:48;;;;;;;9.02;8.20;;;;;;;0.13;62.58;96643.56;5115622;28;20202;-71
2022/12/20 03:15:16;;;;;;;9.07;8.18;;;;;;;0.15;62.67;96643.31;5115905;28;20196;-71
2022/12/20 03:17:43;;;;;;;8.80;8.00;;;;;;;0.12;62.25;96646.53;5115807;28;20195;-71
2022/12/20 03:20:11;;;;;;;9.10;8.30;;;;;;;0.08;62.28;96638.06;5116436;28;20257;-71
2022/12/20 03:22:38;;;;;;;9.65;8.75;;;;;;;0.05;62.58;96638.56;5116200;28;20327;-71
2022/12/20 03:25:05;;;;;;;9.02;8.27;;;;;;;0.05;62.78;96648.59;5115428;28;20283;-71
2022/12/20 03:27:32;;;;;;;8.88;8.07;;;;;;;-0.03;62.79;96647.94;5115482;28;20195;-72
2022/12/20 03:29:59;;;;;;;8.90;8.10;;;;;;;-0.01;62.90;96645.78;5115388;28;20188;-72
2022/12/20 03:32:27;;;;;;;9.48;8.57;;;;;;;-0.05;63.23;96646.53;5114847;28;20223;-72
2022/12/20 03:34:54;;;;;;;9.63;8.82;;;;;;;-0.05;63.43;96651.94;5115347;28;20222;-72
2022/12/20 03:37:21;;;;;;;10.07;9.07;;;;;;;-0.07;63.36;96643.25;5116529;28;20196;-72
2022/12/20 03:39:48;;;;;;;9.75;8.85;;;;;;;-0.06;63.58;96648.41;5116093;28;20187;-72
2022/12/20 03:42:15;;;;;;;9.60;8.70;;;;;;;-0.06;64.10;96645.72;5115924;28;20200;-72
2022/12/20 03:44:41;;;;;;;10.07;9.07;;;;;;;-0.07;63.39;96637.84;5115177;28;20596;-71
2022/12/20 03:47:09;;;;;;;9.48;8.60;;;;;;;-0.11;64.03;96642.06;5115447;28;20192;-71
2022/12/20 03:49:37;;;;;;;9.55;8.68;;;;;;;-0.15;63.87;96640.94;5116015;28;20221;-71
2022/12/20 03:52:04;;;;;;;10.15;9.23;;;;;;;-0.13;63.83;96639.63;5115048;28;20202;-71
2022/12/20 03:54:31;;;;;;;9.65;8.75;;;;;;;-0.13;64.04;96638.81;5114552;28;20214;-71
2022/12/20 03:56:57;;;;;;;9.98;9.05;;;;;;;-0.15;64.16;96646.34;5114733;28;20290;-71
2022/12/20 03:59:24;;;;;;;10.13;9.13;;;;;;;-0.17;64.07;96635.78;5115812;28;20184;-71
2022/12/20 04:01:51;;;;;;;9.90;9.00;;;;;;;-0.21;63.72;96648.19;5114738;28;20196;-71
2022/12/20 04:04:18;;;;;;;9.50;8.70;;;;;;;-0.24;64.08;96648.66;5114692;28;20585;-72
2022/12/20 04:06:47;;;;;;;9.90;9.02;;;;;;;-0.17;63.95;96652.03;5114752;28;20203;-71
2022/12/20 04:09:13;;;;;;;10.10;9.20;;;;;;;-0.15;63.29;96640.94;5115736;28;20199;-71
2022/12/20 04:11:40;;;;;;;11.43;10.32;;;;;;;-0.18;63.95;96642.28;5114747;28;20199;-71
2022/12/20 04:14:07;;;;;;;10.45;9.55;;;;;;;-0.20;63.30;96649.81;5114331;28;20224;-71
2022/12/20 04:16:34;;;;;;;9.77;8.88;;;;;;;-0.19;62.99;96639.78;5114289;28;20196;-71
2022/12/20 04:19:01;;;;;;;9.80;8.90;;;;;;;-0.22;63.28;96640.28;5115283;28;20525;-71
2022/12/20 04:21:29;;;;;;;10.27;9.38;;;;;;;-0.23;63.34;96644.88;5114544;28;20227;-70
2022/12/20 04:23:58;;;;;;;10.27;9.38;;;;;;;-0.25;63.17;96639.72;5114724;28;20204;-70
2022/12/20 04:26:25;;;;;;;10.00;9.10;;;;;;;-0.20;63.53;96636.25;5114280;28;20643;-70
2022/12/20 04:28:52;;;;;;;10.57;9.68;;;;;;;-0.17;62.89;96626.81;5114362;28;20184;-70
2022/12/20 04:31:19;;;;;;;10.45;9.50;;;;;;;-0.19;62.88;96635.19;5114357;28;20195;-70
2022/12/20 04:33:47;;;;;;;10.30;9.35;;;;;;;-0.20;63.04;96633.53;5114668;28;20698;-70
2022/12/20 04:36:14;;;;;;;11.90;10.60;;;;;;;-0.25;63.08;96626.16;5115456;28;20180;-70
2022/12/20 04:38:41;;;;;;;13.07;11.77;;;;;;;-0.26;63.05;96627.19;5115489;28;20200;-71
2022/12/20 04:41:09;;;;;;;12.38;11.18;;;;;;;-0.26;63.11;96620.97;5114346;28;20195;-70
2022/12/20 04:43:36;;;;;;;12.90;11.60;;;;;;;-0.29;63.28;96630.44;5115244;28;20206;-70
2022/12/20 04:46:03;;;;;;;14.10;12.63;;;;;;;-0.34;63.65;96618.66;5115537;28;20191;-70
2022/12/20 04:48:30;;;;;;;13.55;12.15;;;;;;;-0.34;63.80;96618.66;5114510;28;20208;-70
2022/12/20 04:50:57;;;;;;;15.18;13.27;;;;;;;-0.35;63.46;96623.28;5114509;28;20202;-70
2022/12/20 04:56:09;;;;;;;13.88;12.48;;;;;;;-0.35;63.09;96625.16;5114161;28;20196;-70
2022/12/20 04:58:36;;;;;;;14.20;12.80;;;;;;;-0.36;63.55;96618.09;5115837;28;20272;-70
2022/12/20 05:01:03;;;;;;;13.95;12.52;;;;;;;-0.37;63.48;96617.25;5118397;28;20200;-70
2022/12/20 05:03:30;;;;;;;15.43;13.90;;;;;;;-0.38;63.52;96623.75;5118212;28;20210;-70
2022/12/20 05:05:56;;;;;;;14.32;12.93;;;;;;;-0.40;63.46;96615.06;5118124;28;20210;-70
2022/12/20 05:08:23;;;;;;;13.07;11.75;;;;;;;-0.42;63.58;96622.59;5118029;28;20203;-72
2022/12/20 05:10:50;;;;;;;12.52;11.32;;;;;;;-0.46;63.44;96617.94;5118783;28;20196;-70
2022/12/20 05:13:21;;;;;;;13.80;12.45;;;;;;;-0.48;63.64;96618.16;5117462;28;20530;-72
2022/12/20 05:15:51;;;;;;;14.60;12.98;;;;;;;-0.52;63.54;96627.84;5118415;28;20290;-72
2022/12/20 05:18:17;;;;;;;16.63;14.63;;;;;;;-0.58;63.78;96624.25;5118132;28;20184;-73
2022/12/20 05:20:44;;;;;;;13.77;12.38;;;;;;;-0.56;64.10;96624.81;5119175;28;20177;-71
2022/12/20 05:28:41;;;;;;;18.02;14.75;;;;;;;-0.62;64.14;96625.78;5118119;28;20187;-72
2022/12/20 05:31:09;;;;;;;16.70;14.88;;;;;;;-0.63;64.28;96637.69;5117940;28;20432;-69
2022/12/20 05:33:36;;;;;;;18.42;16.30;;;;;;;-0.59;64.00;96632.59;5117370;28;20436;-71
2022/12/20 05:36:02;;;;;;;14.70;13.20;;;;;;;-0.58;64.27;96626.97;5117873;28;20198;-70
2022/12/20 05:38:30;;;;;;;18.40;13.77;;;;;;;-0.59;64.34;96633.41;5117272;28;20199;-69
2022/12/20 05:40:56;;;;;;;16.30;13.38;;;;;;;-0.62;63.92;96633.91;5118514;28;20194;-70
2022/12/20 05:43:23;;;;;;;14.70;13.00;;;;;;;-0.65;64.00;96634.41;5117726;28;20196;-70
2022/12/20 05:45:53;;;;;;;17.42;14.05;;;;;;;-0.65;64.06;96642.53;5117340;28;20196;-70
2022/12/20 05:48:20;;;;;;;16.15;13.90;;;;;;;-0.65;64.43;96637.13;5116967;28;20578;-70
2022/12/20 05:50:47;;;;;;;17.23;14.10;;;;;;;-0.66;64.81;96638.16;5117550;28;20196;-70
2022/12/20 05:53:15;;;;;;;17.80;14.50;;;;;;;-0.70;64.66;96633.50;5117715;28;20188;-70
2022/12/20 05:55:43;;;;;;;14.98;13.38;;;;;;;-0.74;64.84;96638.56;5118100;28;20203;-70
2022/12/20 05:58:12;;;;;;;14.48;13.02;;;;;;;-0.71;65.03;96640.81;5118210;28;20184;-70
2022/12/20 06:00:39;;;;;;;12.80;11.60;;;;;;;-0.73;64.97;96637.50;5117237;28;20207;-70
2022/12/20 06:03:08;;;;;;;12.75;11.55;;;;;;;-0.71;65.05;96638.09;5117343;28;20199;-70
2022/12/20 06:05:35;;;;;;;12.77;11.45;;;;;;;-0.82;64.55;96645.22;5116979;28;20199;-70
2022/12/20 06:08:02;;;;;;;12.40;11.20;;;;;;;-0.78;65.12;96640.13;5117088;28;20195;-70
2022/12/20 06:10:29;;;;;;;12.88;11.57;;;;;;;-0.68;65.02;96642.22;5116870;28;20253;-70
2022/12/20 06:12:55;;;;;;;13.70;12.35;;;;;;;-0.65;64.63;96639.84;5117763;28;20180;-70
2022/12/20 06:15:22;;;;;;;12.50;11.30;;;;;;;-0.63;64.66;96634.97;5117822;28;20207;-70
2022/12/20 06:17:49;;;;;;;13.15;11.85;;;;;;;-0.60;64.64;96642.63;5117801;28;20203;-70
2022/12/20 06:20:19;;;;;;;15.25;13.65;;;;;;;-0.61;64.30;96641.00;5116784;28;20187;-70
2022/12/20 06:22:45;;;;;;;13.65;12.23;;;;;;;-0.59;64.53;96635.31;5116395;28;20227;-69
2022/12/20 06:25:13;;;;;;;14.13;12.82;;;;;;;-0.60;64.49;96644.50;5117626;28;20187;-69
2022/12/20 06:27:41;;;;;;;14.93;13.55;;;;;;;-0.58;64.37;96642.38;5117331;28;20649;-70
2022/12/20 06:30:09;;;;;;;14.48;13.18;;;;;;;-0.58;64.55;96643.22;5117444;28;20192;-70
2022/12/20 06:32:37;;;;;;;15.05;13.65;;;;;;;-0.60;64.79;96639.09;5117554;28;20188;-70
2022/12/20 06:35:04;;;;;;;13.98;12.63;;;;;;;-0.59;64.47;96636.13;5116713;28;20227;-69
2022/12/20 06:37:33;;;;;;;12.90;11.70;;;;;;;-0.61;64.62;96638.28;5116561;28;20203;-69
2022/12/20 06:40:00;;;;;;;13.20;11.90;;;;;;;-0.61;64.15;96634.75;5116728;28;20207;-69
2022/12/20 06:42:27;;;;;;;15.60;11.77;;;;;;;-0.62;63.93;96636.63;5116428;28;20217;-69
2022/12/20 06:44:54;;;;;;;14.80;13.45;;;;;;;-0.57;64.35;96634.00;5117358;28;20233;-69
2022/12/20 06:47:20;;;;;;;12.88;11.48;;;;;;;-0.54;64.39;96627.28;5117030;28;20187;-70
2022/12/20 06:49:48;;;;;;;13.27;11.93;;;;;;;-0.49;64.48;96625.47;5116239;28;20208;-70
2022/12/20 06:52:14;;;;;;;13.82;12.43;;;;;;;-0.47;63.91;96621.69;5115643;28;20549;-70
2022/12/20 06:54:43;;;;;;;13.95;12.40;;;;;;;-0.41;63.84;96618.81;5115729;28;20583;-70
2022/12/20 06:57:10;;;;;;;13.63;12.32;;;;;;;-0.35;63.59;96619.75;5116374;28;20195;-71
2022/12/20 06:59:36;;;;;;;12.82;11.63;;;;;;;-0.27;63.16;96620.16;5116366;28;20214;-71
2022/12/20 07:02:03;;;;;;;12.38;11.18;;;;;;;-0.29;62.73;96613.31;5115916;28;20207;-70
2022/12/20 07:04:30;;;;;;;12.32;11.13;;;;;;;-0.30;63.03;96606.25;5116873;28;20218;-71
2022/12/20 07:06:57;;;;;;;12.85;11.68;;;;;;;-0.29;62.54;96613.31;5116426;28;20200;-70
2022/12/20 07:09:24;;;;;;;12.98;11.75;;;;;;;-0.26;62.51;96610.94;5116548;28;20196;-70
2022/12/20 07:11:52;;;;;;;12.95;11.65;;;;;;;-0.21;62.30;96621.06;5115841;28;20191;-70
2022/12/20 07:14:19;;;;;;;12.70;11.48;;;;;;;-0.25;62.11;96601.75;5115629;28;20215;-70
2022/12/20 07:16:45;;;;;;;12.23;11.13;;;;;;;-0.19;62.22;96604.53;5115488;28;20196;-70
2022/12/20 07:19:12;;;;;;;11.73;10.68;;;;;;;-0.17;61.50;96608.66;5116116;28;20200;-70
2022/12/20 07:21:39;;;;;;;13.15;12.00;;;;;;;-0.07;61.63;96611.53;5114710;28;20240;-70
2022/12/20 07:24:07;;;;;;;12.50;11.32;;;;;;;-0.02;61.09;96608.88;5115657;28;20191;-70
2022/12/20 07:26:34;;;;;;;11.80;10.80;;;;;;;-0.01;60.63;96610.50;5115071;28;20542;-70
2022/12/20 07:29:02;;;;;;;11.07;10.07;;;;;;;0.01;60.93;96613.00;5116009;28;20508;-70
2022/12/20 07:31:29;;;;;;;12.05;10.95;;;;;;;0.05;60.47;96616.03;5116394;28;20195;-70
2022/12/20 07:33:56;;;;;;;11.60;10.50;;;;;;;0.10;59.83;96610.66;5115387;28;20196;-70
2022/12/20 07:36:23;;;;;;;10.68;9.68;;;;;;;0.18;59.44;96607.53;5116210;28;20268;-72
2022/12/20 07:38:49;;;;;;;10.95;9.77;;;;;;;0.43;60.25;96607.88;5116087;28;20195;-72
2022/12/20 07:41:17;;;;;;;10.20;9.23;;;;;;;0.66;59.52;96595.16;5116194;28;20184;-72
2022/12/20 07:43:44;;;;;;;11.48;9.52;;;;;;;0.87;59.14;96607.06;5115478;28;20191;-72
2022/12/20 07:46:13;;;;;;;11.13;10.02;;;;;;;0.99;59.67;96612.38;5115255;28;20195;-71
2022/12/20 07:48:40;;;;;;;11.15;10.10;;;;;;;1.00;58.63;96606.69;5114863;28;20207;-72
2022/12/20 07:51:10;;;;;;;11.00;10.00;;;;;;;1.05;59.42;96592.31;5114967;28;20203;-70
2022/12/20 07:53:43;;;;;;;10.95;9.95;;;;;;;1.13;59.20;96605.47;5115266;28;20199;-71
2022/12/20 07:56:11;;;;;;;10.57;9.57;;;;;;;1.15;58.71;96589.72;5115785;28;20227;-70
2022/12/20 07:58:40;;;;;;;12.25;11.02;;;;;;;1.03;57.80;96587.16;5097918;28;20195;-70
2022/12/20 08:01:07;;;;;;;12.48;11.27;;;;;;;1.02;58.30;96588.25;5114753;28;20588;-70
2022/12/20 08:03:38;;;;;;;12.40;11.10;;;;;;;1.12;59.22;96593.75;5114603;28;20191;-70
2022/12/20 08:06:07;;;;;;;13.73;12.43;;;;;;;1.25;59.61;96589.03;5114755;28;20235;-71
2022/12/20 08:08:35;;;;;;;13.05;11.77;;;;;;;1.27;58.63;96587.69;5114826;28;20192;-71
2022/12/20 08:11:02;;;;;;;12.93;11.68;;;;;;;1.31;58.28;96588.81;5115531;28;20183;-71
2022/12/20 08:13:29;;;;;;;12.15;11.05;;;;;;;1.37;59.48;96584.22;5114700;28;20206;-71
2022/12/20 08:15:56;;;;;;;11.20;10.20;;;;;;;1.46;58.98;96577.25;5114369;28;20216;-71
2022/12/20 08:18:23;;;;;;;12.27;11.13;;;;;;;1.55;59.26;96581.13;5115120;28;20191;-71
2022/12/20 08:20:51;;;;;;;12.02;10.88;;;;;;;1.58;58.47;96579.81;5114864;28;20196;-71
2022/12/20 08:23:18;;;;;;;12.13;11.02;;;;;;;1.62;58.46;96578.19;5114510;28;20295;-70
2022/12/20 08:25:45;;;;;;;12.52;11.23;;;;;;;1.77;59.42;96578.31;5114418;28;20248;-71
2022/12/20 08:28:12;;;;;;;12.52;11.32;;;;;;;1.86;58.78;96571.34;5114334;28;20192;-70
2022/12/20 08:30:39;;;;;;;12.25;11.10;;;;;;;1.94;58.09;96572.75;5115283;28;20191;-70
2022/12/20 08:33:06;;;;;;;11.90;10.82;;;;;;;1.99;58.03;96570.03;5116178;28;20269;-70
2022/12/20 08:35:34;;;;;;;12.05;10.95;;;;;;;2.10;59.07;96569.03;5119741;28;20268;-71
2022/12/20 08:38:02;;;;;;;12.68;11.48;;;;;;;2.20;57.66;96570.19;5101741;28;20432;-71
2022/12/20 08:40:29;;;;;;;11.95;10.85;;;;;;;2.25;56.97;96564.75;5118738;28;20615;-71
2022/12/20 08:42:56;;;;;;;11.90;10.65;;;;;;;2.17;56.28;96566.09;5118967;28;20197;-71
2022/12/20 08:45:22;;;;;;;12.57;11.45;;;;;;;2.20;57.11;96562.03;5119610;28;20184;-70
2022/12/20 08:47:50;;;;;;;12.25;11.07;;;;;;;2.19;56.18;96568.56;5119650;28;20260;-70
2022/12/20 08:50:18;;;;;;;12.07;10.88;;;;;;;2.29;57.81;96561.28;5118783;28;20195;-71
2022/12/20 08:52:44;;;;;;;12.27;11.18;;;;;;;2.46;57.65;96561.06;5119494;28;20195;-70
2022/12/20 08:55:13;;;;;;;13.35;11.48;;;;;;;2.59;57.33;96565.22;5118783;28;20215;-70
2022/12/20 08:57:39;;;;;;;12.40;11.20;;;;;;;2.62;57.10;96568.25;5119582;28;20195;-70
2022/12/20 09:00:07;;;;;;;12.80;11.60;;;;;;;2.67;56.59;96563.91;5119421;28;20184;-71
2022/12/20 09:02:36;;;;;;;13.07;11.75;;;;;;;2.68;54.89;96555.44;5119302;28;20632;-71
2022/12/20 09:05:03;;;;;;;12.65;11.45;;;;;;;2.74;55.38;96548.94;5118390;28;20294;-70
2022/12/20 09:07:30;;;;;;;12.80;11.60;;;;;;;2.82;55.10;96551.13;5118324;28;20596;-70
2022/12/20 09:09:57;;;;;;;12.63;11.30;;;;;;;2.85;55.03;96547.06;5119106;28;20195;-71
2022/12/20 09:12:25;;;;;;;12.65;11.38;;;;;;;2.97;56.43;96538.66;5117963;28;20207;-71
2022/12/20 09:14:52;;;;;;;12.98;11.80;;;;;;;3.04;55.01;96534.56;5117793;28;20208;-71
2022/12/20 09:17:18;;;;;;;14.35;12.88;;;;;;;3.16;55.85;96542.53;5118245;28;20203;-71
2022/12/20 09:19:45;;;;;;;13.85;12.50;;;;;;;3.23;55.05;96537.63;5117686;28;20201;-71
2022/12/20 09:22:12;;;;;;;13.15;11.85;;;;;;;3.26;54.19;96533.53;5117705;28;20238;-70
2022/12/20 09:24:39;;;;;;;13.43;12.02;;;;;;;3.38;54.32;96528.66;5118523;28;20207;-70
2022/12/20 09:27:06;;;;;;;15.15;13.55;;;;;;;3.45;54.67;96529.19;5117799;28;20231;-70
2022/12/20 09:29:34;;;;;;;16.25;13.73;;;;;;;3.51;53.62;96525.38;5118490;28;20248;-70
2022/12/20 09:32:01;;;;;;;14.52;13.07;;;;;;;3.51;54.43;96517.19;5117608;28;20191;-70
2022/12/20 09:34:28;;;;;;;14.32;12.93;;;;;;;3.59;54.83;96519.38;5117371;28;20207;-71
2022/12/20 09:36:55;;;;;;;15.15;13.75;;;;;;;3.67;54.12;96512.56;5118502;28;20208;-71
2022/12/20 09:39:21;;;;;;;14.35;12.95;;;;;;;3.75;53.49;96505.72;5118301;28;20195;-70
2022/12/20 09:41:48;;;;;;;13.98;12.60;;;;;;;3.76;53.70;96502.72;5117839;28;20207;-70
2022/12/20 09:44:18;;;;;;;13.98;12.68;;;;;;;3.81;52.14;96502.72;5117013;28;20198;-70
2022/12/20 09:46:51;;;;;;;13.48;11.98;;;;;;;3.85;52.28;96500.25;5117196;28;20195;-70
2022/12/20 09:49:19;;;;;;;13.95;12.60;;;;;;;3.92;52.63;96497.22;5118538;28;20184;-71
2022/12/20 09:52:06;;;;;;;14.80;13.38;;;;;;;4.00;52.47;96491.22;5118011;28;20192;-70
2022/12/20 09:54:38;;;;;;;13.10;11.82;;;;;;;4.12;52.05;96490.91;5115432;28;20290;-72
2022/12/20 09:57:11;;;;;;;13.65;12.32;;;;;;;4.17;51.83;96474.50;5118420;28;20226;-71
2022/12/20 09:59:41;;;;;;;13.50;12.23;;;;;;;4.25;51.67;96471.22;5118063;28;20210;-70
2022/12/20 10:02:12;;;;;;;13.60;12.23;;;;;;;4.22;50.92;96469.06;5117411;28;20210;-70
2022/12/20 10:04:39;;;;;;;16.15;14.65;;;;;;;4.19;50.13;96462.22;5117454;28;20199;-71
2022/12/20 10:07:16;;;;;;;17.55;15.88;;;;;;;4.19;49.79;96454.03;5116796;28;20195;-70
2022/12/20 10:09:56;;;;;;;16.92;15.25;;;;;;;4.20;49.60;96452.13;5117691;28;20495;-70
2022/12/20 10:12:30;;;;;;;16.90;15.27;;;;;;;4.21;49.98;96448.28;5117365;28;20188;-70
2022/12/20 10:15:10;;;;;;;14.75;13.38;;;;;;;4.21;50.07;96442.81;5116668;28;20208;-70
2022/12/20 10:17:46;;;;;;;14.18;12.88;;;;;;;4.05;50.53;96429.22;5117938;28;20192;-70
2022/12/20 10:20:22;;;;;;;14.25;12.88;;;;;;;3.92;49.72;96418.06;5117739;28;20211;-70
2022/12/20 10:22:52;;;;;;;12.25;10.93;;;;;;;3.80;49.50;96408.28;5116381;28;20235;-70
2022/12/20 10:25:21;;;;;;;11.57;10.48;;;;;;;3.70;49.66;96410.22;5117286;28;20207;-71
2022/12/20 10:27:50;;;;;;;11.35;10.30;;;;;;;3.60;49.92;96411.06;5118669;28;20202;-71
2022/12/20 10:30:19;;;;;;;11.52;10.43;;;;;;;3.57;50.34;96392.53;5117006;28;20198;-70
2022/12/20 10:32:49;;;;;;;10.30;9.30;;;;;;;3.50;50.23;96386.53;5117586;28;20204;-70
2022/12/20 10:35:24;;;;;;;11.55;10.45;;;;;;;3.46;49.46;96389.00;5117306;28;20192;-70
2022/12/20 10:37:59;;;;;;;11.80;10.60;;;;;;;3.47;50.55;96392.53;5117218;28;20199;-70
2022/12/20 10:40:28;;;;;;;11.85;10.73;;;;;;;3.44;50.37;96388.44;5116858;28;20600;-70
2022/12/20 10:42:56;;;;;;;10.82;9.75;;;;;;;3.48;49.83;96375.88;5116670;28;20199;-70
2022/12/20 10:45:34;;;;;;;11.60;10.40;;;;;;;3.51;50.56;96369.06;5117070;28;20188;-70
2022/12/20 10:48:05;;;;;;;11.25;10.10;;;;;;;3.51;49.77;96364.41;5116927;28;20191;-70
2022/12/20 10:50:32;;;;;;;11.25;10.15;;;;;;;3.53;51.27;96355.97;5116686;28;20211;-70
2022/12/20 10:53:21;;;;;;;11.82;10.63;;;;;;;3.59;49.74;96360.31;5115836;28;20199;-70
2022/12/20 10:55:48;;;;;;;12.15;10.95;;;;;;;3.62;49.11;96357.03;5116211;28;20694;-70
2022/12/20 10:58:17;;;;;;;10.88;9.70;;;;;;;3.55;48.87;96346.41;5116975;28;20206;-70
2022/12/20 11:00:45;;;;;;;10.65;9.65;;;;;;;3.60;50.01;96348.31;5116791;28;20200;-70
2022/12/20 11:03:18;;;;;;;11.60;10.50;;;;;;;3.63;49.67;96353.19;5116400;28;20187;-73
2022/12/20 11:05:57;;;;;;;11.88;10.77;;;;;;;3.68;49.96;96345.00;5116818;28;20231;-72
2022/12/20 11:08:25;;;;;;;11.77;10.68;;;;;;;3.73;50.31;96335.97;5116674;28;20523;-70
2022/12/20 11:11:11;;;;;;;11.65;10.55;;;;;;;3.87;50.58;96345.22;5116310;28;20187;-71
2022/12/20 11:13:38;;;;;;;11.57;10.27;;;;;;;4.10;48.87;96338.28;5116111;28;20252;-70
2022/12/20 11:16:05;;;;;;;11.13;10.02;;;;;;;4.36;48.82;96336.25;5116290;28;20222;-71
2022/12/20 11:18:40;;;;;;;10.40;9.50;;;;;;;4.66;48.42;96331.66;5115959;28;20289;-70
2022/12/20 11:21:17;;;;;;;11.82;10.63;;;;;;;5.07;47.24;96329.41;5115506;28;20191;-70
2022/12/20 11:23:47;;;;;;;12.02;10.05;;;;;;;5.41;46.13;96321.19;5117117;28;20187;-70
2022/12/20 11:26:25;;;;;;;11.95;10.75;;;;;;;5.83;46.20;96316.06;5115922;28;20583;-70
2022/12/20 11:29:03;;;;;;;10.98;9.98;;;;;;;6.53;44.93;96313.50;5115636;28;20203;-70
2022/12/20 11:31:43;;;;;;;11.48;10.38;;;;;;;7.74;44.38;96300.72;5116568;28;20226;-70
2022/12/20 11:34:20;;;;;;;11.27;10.18;;;;;;;8.76;38.30;96304.06;5116039;28;20196;-70
2022/12/20 11:37:09;;;;;;;11.55;10.45;;;;;;;9.86;39.03;96297.09;5115730;28;20240;-71
2022/12/20 11:39:42;;;;;;;11.63;10.43;;;;;;;10.17;38.10;96296.22;5116485;28;20203;-71
2022/12/20 11:42:16;;;;;;;12.00;10.90;;;;;;;9.79;34.86;96289.28;5116551;28;20215;-71
2022/12/20 11:44:52;;;;;;;11.10;10.10;;;;;;;9.31;35.76;96280.97;5116805;28;20195;-71
2022/12/20 11:47:49;;;;;;;12.13;10.93;;;;;;;8.88;36.63;96285.03;5116398;28;20184;-70